Time;durP1;ratioP1;P1;durP2;ratioP2;P2;SDS_P1;SDS_P2;PMS_P1;PMS_P2;Temp;Humidity;BMP_temperature;BMP_pressure;BME280_temperature;BME280_humidity;BME280_pressure;Samples;Min_cycle;Max_cycle;Signal;HPM_P1;HPM_P2
2024/04/02 00:02:56;;;;;;;;;;;;;;;17.88;46.60;98330.88;10412126;28;1013;-70
2024/04/02 00:07:52;;;;;;;;;;;;;;;17.87;46.51;98333.63;10413989;28;1949;-70
2024/04/02 00:12:48;;;;;;;;;;;;;;;17.84;46.62;98336.44;10414550;28;858;-70
2024/04/02 00:17:44;;;;;;;;;;;;;;;17.83;46.39;98337.41;10413779;28;873;-70
2024/04/02 00:22:40;;;;;;;;;;;;;;;17.81;46.58;98344.56;10413577;28;853;-70
2024/04/02 00:27:36;;;;;;;;;;;;;;;17.79;46.48;98343.78;10414022;28;1910;-70
2024/04/02 00:32:32;;;;;;;;;;;;;;;17.79;46.45;98343.78;10412590;28;1086;-70
2024/04/02 00:37:28;;;;;;;;;;;;;;;17.76;46.60;98352.72;10412909;28;766;-70
2024/04/02 00:42:23;;;;;;;;;;;;;;;17.74;46.52;98359.91;10413661;28;853;-70
2024/04/02 00:47:19;;;;;;;;;;;;;;;17.72;46.45;98356.53;10413168;28;2024;-70
2024/04/02 00:52:15;;;;;;;;;;;;;;;17.72;46.53;98360.00;10413216;28;925;-70
2024/04/02 00:57:11;;;;;;;;;;;;;;;17.69;46.63;98357.56;10412238;27;818;-70
2024/04/02 01:02:07;;;;;;;;;;;;;;;17.69;46.55;98367.25;10412151;28;814;-70
2024/04/02 01:07:03;;;;;;;;;;;;;;;17.66;46.50;98367.47;10411650;28;1007;-69
2024/04/02 01:11:59;;;;;;;;;;;;;;;17.66;46.38;98383.28;10410546;28;1953;-70
2024/04/02 01:16:55;;;;;;;;;;;;;;;17.63;46.66;98384.31;10412052;28;1000;-70
2024/04/02 01:21:52;;;;;;;;;;;;;;;17.63;46.45;98386.09;10412449;28;926;-70
2024/04/02 01:26:48;;;;;;;;;;;;;;;17.61;46.58;98380.94;10411461;28;1147;-70
2024/04/02 01:31:44;;;;;;;;;;;;;;;17.60;46.59;98395.03;10410774;28;1905;-70
2024/04/02 01:36:39;;;;;;;;;;;;;;;17.58;46.48;98391.69;10411212;28;878;-70
2024/04/02 01:41:35;;;;;;;;;;;;;;;17.57;46.62;98392.59;10410409;28;886;-70
2024/04/02 01:46:31;;;;;;;;;;;;;;;17.55;46.56;98399.75;10409658;28;992;-70
2024/04/02 01:51:27;;;;;;;;;;;;;;;17.53;46.56;98399.88;10410057;28;1951;-70
2024/04/02 01:56:23;;;;;;;;;;;;;;;17.53;46.26;98404.28;10409897;28;826;-70
2024/04/02 02:01:19;;;;;;;;;;;;;;;17.50;46.54;98405.34;10410262;28;909;-70
2024/04/02 02:06:15;;;;;;;;;;;;;;;17.50;46.41;98409.72;10409527;28;862;-70
2024/04/02 02:11:11;;;;;;;;;;;;;;;17.49;46.45;98418.59;10409277;28;1953;-70
2024/04/02 02:16:06;;;;;;;;;;;;;;;17.47;46.53;98413.41;10409753;28;873;-70
2024/04/02 02:21:02;;;;;;;;;;;;;;;17.46;46.58;98418.78;10408900;28;858;-70
2024/04/02 02:25:58;;;;;;;;;;;;;;;17.45;46.63;98422.38;10407665;28;1147;-70
2024/04/02 02:30:54;;;;;;;;;;;;;;;17.44;46.58;98424.13;10408522;28;1953;-70
2024/04/02 02:35:50;;;;;;;;;;;;;;;17.42;46.49;98427.81;10409052;28;865;-70
2024/04/02 02:40:46;;;;;;;;;;;;;;;17.41;46.54;98436.66;10408704;28;830;-70
2024/04/02 02:45:42;;;;;;;;;;;;;;;17.40;46.35;98440.25;10408733;28;845;-70
2024/04/02 02:50:37;;;;;;;;;;;;;;;17.39;46.55;98438.53;10407367;28;1893;-70
2024/04/02 02:55:33;;;;;;;;;;;;;;;17.38;46.18;98439.50;10408561;28;888;-70
2024/04/02 03:00:29;;;;;;;;;;;;;;;17.37;46.62;98457.09;10407846;28;1012;-70
2024/04/02 03:05:25;;;;;;;;;;;;;;;17.35;46.38;98448.44;10408352;28;717;-70
2024/04/02 03:10:21;;;;;;;;;;;;;;;17.34;46.40;98454.63;10406889;28;1898;-70
2024/04/02 03:15:17;;;;;;;;;;;;;;;17.34;46.48;98462.53;10407546;28;872;-70
2024/04/02 03:20:13;;;;;;;;;;;;;;;17.31;46.50;98460.94;10408210;28;924;-70
2024/04/02 03:25:09;;;;;;;;;;;;;;;17.31;46.35;98463.56;10407301;28;1687;-70
2024/04/02 03:30:06;;;;;;;;;;;;;;;17.29;46.51;98462.84;10408250;28;1966;-70
2024/04/02 03:35:01;;;;;;;;;;;;;;;17.28;46.33;98463.75;10409650;28;871;-70
2024/04/02 03:39:57;;;;;;;;;;;;;;;17.28;46.41;98473.44;10415832;27;896;-70
2024/04/02 03:44:53;;;;;;;;;;;;;;;17.25;46.46;98469.22;10415036;28;977;-70
2024/04/02 03:49:49;;;;;;;;;;;;;;;17.24;46.40;98478.06;10414832;28;1894;-70
2024/04/02 03:54:45;;;;;;;;;;;;;;;17.25;46.39;98485.00;10414831;28;937;-70
2024/04/02 03:59:41;;;;;;;;;;;;;;;17.26;46.06;98485.84;10414542;27;857;-70
2024/04/02 04:04:37;;;;;;;;;;;;;;;17.25;46.18;98484.19;10415509;28;950;-70
2024/04/02 04:09:33;;;;;;;;;;;;;;;17.26;46.39;98491.13;10414448;28;1953;-70
2024/04/02 04:14:29;;;;;;;;;;;;;;;17.27;46.19;98492.84;10414579;28;862;-70
2024/04/02 04:19:24;;;;;;;;;;;;;;;17.28;46.21;98497.16;10413142;27;913;-70
2024/04/02 04:24:20;;;;;;;;;;;;;;;17.30;46.01;98511.91;10413530;28;1229;-70
2024/04/02 04:29:16;;;;;;;;;;;;;;;17.34;46.13;98509.09;10413980;28;1914;-70
2024/04/02 04:34:12;;;;;;;;;;;;;;;17.37;46.27;98519.44;10413219;28;861;-70
2024/04/02 04:39:08;;;;;;;;;;;;;;;17.39;46.16;98528.94;10413906;28;886;-70
2024/04/02 04:44:04;;;;;;;;;;;;;;;17.41;46.26;98528.84;10412102;28;1125;-70
2024/04/02 04:49:00;;;;;;;;;;;;;;;17.44;46.18;98523.41;10412501;28;1897;-70
2024/04/02 04:53:55;;;;;;;;;;;;;;;17.47;46.09;98525.84;10412419;28;802;-70
2024/04/02 04:58:51;;;;;;;;;;;;;;;17.49;46.01;98534.50;10412863;27;919;-70
2024/04/02 05:03:47;;;;;;;;;;;;;;;17.51;46.07;98535.25;10412646;27;811;-70
2024/04/02 05:08:43;;;;;;;;;;;;;;;17.53;46.23;98536.03;10412343;28;1949;-70
2024/04/02 05:13:40;;;;;;;;;;;;;;;17.56;46.04;98545.53;10411668;28;856;-70
2024/04/02 05:18:36;;;;;;;;;;;;;;;17.58;46.06;98549.75;10411427;28;822;-70
2024/04/02 05:23:32;;;;;;;;;;;;;;;17.60;46.49;98558.41;10412811;28;908;-70
2024/04/02 05:28:28;;;;;;;;;;;;;;;17.62;45.98;98556.53;10411957;28;1983;-70
2024/04/02 05:33:24;;;;;;;;;;;;;;;17.63;46.25;98568.78;10410817;28;814;-70
2024/04/02 05:38:19;;;;;;;;;;;;;;;17.64;46.04;98570.44;10410778;28;877;-70
2024/04/02 05:43:15;;;;;;;;;;;;;;;17.67;46.17;98570.25;10410697;28;990;-70
2024/04/02 05:48:11;;;;;;;;;;;;;;;17.68;46.01;98582.50;10410193;27;1965;-70
2024/04/02 05:53:07;;;;;;;;;;;;;;;17.70;46.00;98590.31;10409533;28;920;-70
2024/04/02 05:58:03;;;;;;;;;;;;;;;17.71;45.97;98590.22;10410332;27;896;-70
2024/04/02 06:03:00;;;;;;;;;;;;;;;17.72;46.00;98591.91;10409681;28;849;-71
2024/04/02 06:07:57;;;;;;;;;;;;;;;17.72;46.01;98594.53;10409656;28;1898;-70
2024/04/02 06:12:53;;;;;;;;;;;;;;;17.71;46.12;98595.50;10409539;28;866;-70
2024/04/02 06:17:49;;;;;;;;;;;;;;;17.70;45.94;98596.41;10409712;28;814;-71
2024/04/02 06:22:44;;;;;;;;;;;;;;;17.70;46.09;98601.69;10407576;28;1120;-70
2024/04/02 06:27:41;;;;;;;;;;;;;;;17.70;45.93;98608.75;10407760;28;1913;-70
2024/04/02 06:32:37;;;;;;;;;;;;;;;17.69;45.93;98613.19;10409133;28;849;-70
2024/04/02 06:37:33;;;;;;;;;;;;;;;17.69;46.05;98614.97;10408784;27;769;-70
2024/04/02 06:42:29;;;;;;;;;;;;;;;17.68;46.31;98624.69;10408224;28;927;-70
2024/04/02 06:47:24;;;;;;;;;;;;;;;17.69;46.25;98629.00;10409383;28;856;-70
2024/04/02 06:52:20;;;;;;;;;;;;;;;17.71;46.11;98637.66;10408038;28;856;-71
2024/04/02 06:57:16;;;;;;;;;;;;;;;17.72;46.13;98635.88;10408664;28;886;-70
2024/04/02 07:02:12;;;;;;;;;;;;;;;17.73;46.39;98633.13;10408539;28;798;-70
2024/04/02 07:07:08;;;;;;;;;;;;;;;17.74;46.37;98640.09;10408313;28;883;-71
2024/04/02 07:12:05;;;;;;;;;;;;;;;17.76;46.23;98642.63;10413029;28;1961;-68
2024/04/02 07:17:00;;;;;;;;;;;;;;;17.76;46.24;98650.53;10416174;28;971;-70
2024/04/02 07:21:56;;;;;;;;;;;;;;;17.77;46.16;98659.31;10416791;28;1008;-70
2024/04/02 07:26:52;;;;;;;;;;;;;;;17.78;46.17;98661.84;10415934;28;1400;-70
2024/04/02 07:31:48;;;;;;;;;;;;;;;17.81;46.12;98668.75;10415677;28;1975;-71
2024/04/02 07:36:44;;;;;;;;;;;;;;;17.81;46.09;98666.13;10416080;28;823;-71
2024/04/02 07:41:40;;;;;;;;;;;;;;;17.82;46.17;98673.94;10415854;28;771;-70
2024/04/02 07:46:36;;;;;;;;;;;;;;;17.82;45.94;98681.00;10415227;28;865;-71
2024/04/02 07:51:31;;;;;;;;;;;;;;;17.82;46.27;98683.66;10414289;28;1956;-70
2024/04/02 07:56:27;;;;;;;;;;;;;;;17.85;46.14;98686.94;10414748;28;846;-71
2024/04/02 08:01:23;;;;;;;;;;;;;;;17.85;46.06;98701.91;10414819;28;879;-71
2024/04/02 08:06:19;;;;;;;;;;;;;;;17.86;46.00;98701.78;10414381;28;765;-70
2024/04/02 08:11:15;;;;;;;;;;;;;;;17.86;45.91;98708.88;10414091;28;1893;-70
2024/04/02 08:16:11;;;;;;;;;;;;;;;17.87;46.11;98711.41;10413985;28;859;-71
2024/04/02 08:21:07;;;;;;;;;;;;;;;17.86;45.91;98717.63;10413221;28;872;-70
2024/04/02 08:26:03;;;;;;;;;;;;;;;17.87;45.83;98718.50;10413930;28;1876;-71
2024/04/02 08:30:59;;;;;;;;;;;;;;;17.87;46.06;98735.16;10414324;28;1941;-70
2024/04/02 08:35:54;;;;;;;;;;;;;;;17.88;46.03;98730.72;10413205;28;808;-75
2024/04/02 08:40:50;;;;;;;;;;;;;;;17.88;46.07;98739.47;10412270;28;933;-71
2024/04/02 08:45:46;;;;;;;;;;;;;;;17.90;45.85;98747.28;10412824;28;814;-70
2024/04/02 08:50:42;;;;;;;;;;;;;;;17.90;46.01;98745.50;10413154;28;1886;-71
2024/04/02 08:55:40;;;;;;;;;;;;;;;17.88;46.10;98752.66;10413032;27;1008;-71
2024/04/02 09:00:36;;;;;;;;;;;;;;;17.90;46.04;98756.03;10412297;28;845;-71
2024/04/02 09:05:32;;;;;;;;;;;;;;;17.92;45.88;98763.84;10412936;28;881;-73
2024/04/02 09:10:28;;;;;;;;;;;;;;;17.91;45.83;98768.28;10411787;28;1957;-71
2024/04/02 09:15:25;;;;;;;;;;;;;;;17.93;46.12;98752.38;10411650;28;837;-71
2024/04/02 09:20:20;;;;;;;;;;;;;;;17.95;45.91;98774.22;10411993;28;810;-71
2024/04/02 09:25:17;;;;;;;;;;;;;;;17.95;45.52;98755.78;10410634;28;1131;-71
2024/04/02 09:30:12;;;;;;;;;;;;;;;17.95;46.08;98761.06;10410931;28;1913;-70
2024/04/02 09:35:08;;;;;;;;;;;;;;;17.94;45.84;98761.97;10410020;28;925;-70
2024/04/02 09:40:04;;;;;;;;;;;;;;;17.94;45.72;98769.88;10410110;28;817;-71
2024/04/02 09:45:00;;;;;;;;;;;;;;;17.96;45.72;98778.56;10410506;28;787;-71
2024/04/02 09:49:56;;;;;;;;;;;;;;;17.96;45.71;98782.03;10409590;27;1953;-74
2024/04/02 09:54:52;;;;;;;;;;;;;;;17.94;45.91;98777.78;10410094;28;834;-75
2024/04/02 09:59:48;;;;;;;;;;;;;;;17.93;45.80;98784.00;10410439;28;898;-74
2024/04/02 10:04:44;;;;;;;;;;;;;;;17.93;45.80;98776.09;10410596;28;868;-74
2024/04/02 10:09:39;;;;;;;;;;;;;;;17.91;45.83;98784.09;10410112;27;1951;-77
2024/04/02 10:14:35;;;;;;;;;;;;;;;17.90;45.55;98782.41;10409277;28;825;-74
2024/04/02 10:19:33;;;;;;;;;;;;;;;17.88;45.60;98786.91;10410491;28;896;-76
2024/04/02 10:24:28;;;;;;;;;;;;;;;17.89;45.54;98790.41;10409552;28;1008;-75
2024/04/02 10:29:24;;;;;;;;;;;;;;;17.86;45.56;98786.16;10409792;28;1910;-74
2024/04/02 10:34:23;;;;;;;;;;;;;;;17.86;45.64;98772.13;10408575;28;1024;-74
2024/04/02 10:39:19;;;;;;;;;;;;;;;17.87;45.50;98797.56;10408461;28;846;-75
2024/04/02 10:44:14;;;;;;;;;;;;;;;17.87;45.29;98797.56;10406393;28;1140;-74
2024/04/02 10:49:10;;;;;;;;;;;;;;;17.87;45.23;98795.78;10407642;28;1988;-74
2024/04/02 10:54:06;;;;;;;;;;;;;;;17.88;45.25;98793.97;10407904;28;958;-75
2024/04/02 10:59:03;;;;;;;;;;;;;;;17.88;45.34;98786.91;10407804;28;862;-74
2024/04/02 11:03:59;;;;;;;;;;;;;;;17.87;45.28;98787.03;10407117;28;854;-75
2024/04/02 11:08:55;;;;;;;;;;;;;;;17.87;45.41;98805.47;10407386;28;1897;-74
2024/04/02 11:13:53;;;;;;;;;;;;;;;17.87;45.23;98802.84;10406968;28;836;-74
2024/04/02 11:18:49;;;;;;;;;;;;;;;17.86;45.38;98798.50;10407364;28;892;-74
2024/04/02 11:29:00;;;;;;;;;;;;;;;17.88;45.24;98789.56;10406335;28;1930;-76
2024/04/02 11:33:55;;;;;;;;;;;;;;;17.89;45.04;98795.66;10405887;28;1203;-75
2024/04/02 11:38:51;;;;;;;;;;;;;;;17.87;45.33;98798.41;10407013;28;881;-75
2024/04/02 11:43:47;;;;;;;;;;;;;;;17.86;45.00;98786.16;10406333;28;897;-74
2024/04/02 11:48:43;;;;;;;;;;;;;;;17.88;45.29;98783.44;10406751;28;1894;-75
2024/04/02 11:53:39;;;;;;;;;;;;;;;17.87;45.04;98776.47;10406850;28;839;-75
2024/04/02 12:03:49;;;;;;;;;;;;;;;17.89;44.87;98779.84;10414705;28;609;-75
2024/04/02 12:08:45;;;;;;;;;;;;;;;17.92;44.95;98783.19;10414224;28;1898;-72
2024/04/02 12:13:41;;;;;;;;;;;;;;;17.92;45.13;98775.25;10414047;28;988;-69
2024/04/02 12:18:40;;;;;;;;;;;;;;;17.93;45.28;98794.56;10413850;28;778;-70
2024/04/02 12:23:36;;;;;;;;;;;;;;;17.93;45.43;98802.47;10414462;28;1010;-71
2024/04/02 12:28:32;;;;;;;;;;;;;;;17.93;45.41;98819.13;10410779;28;1988;-70
2024/04/02 12:33:28;;;;;;;;;;;;;;;17.94;45.67;98822.59;10413397;28;842;-71
2024/04/02 12:38:23;;;;;;;;;;;;;;;17.95;45.66;98826.97;10413609;28;826;-71
2024/04/02 12:43:19;;;;;;;;;;;;;;;17.97;45.56;98840.88;10413016;28;789;-70
2024/04/02 12:48:15;;;;;;;;;;;;;;;18.01;45.67;98842.41;10412437;28;1909;-71
2024/04/02 12:53:11;;;;;;;;;;;;;;;18.06;45.51;98839.50;10412756;28;901;-71
2024/04/02 12:58:07;;;;;;;;;;;;;;;18.08;45.74;98838.50;10412289;28;925;-71
2024/04/02 13:03:03;;;;;;;;;;;;;;;18.07;45.62;98836.78;10411007;28;791;-70
2024/04/02 13:07:59;;;;;;;;;;;;;;;18.07;45.79;98830.66;10410580;28;1964;-70
2024/04/02 13:12:55;;;;;;;;;;;;;;;18.12;45.75;98825.97;10411852;28;862;-70
2024/04/02 13:17:50;;;;;;;;;;;;;;;18.18;45.39;98822.94;10411094;28;948;-70
2024/04/02 13:22:46;;;;;;;;;;;;;;;18.23;45.59;98818.25;10410735;28;865;-71
2024/04/02 13:27:42;;;;;;;;;;;;;;;18.18;45.79;98823.81;10412136;27;1978;-70
2024/04/02 13:32:38;;;;;;;;;;;;;;;18.15;45.65;98826.63;10411345;28;850;-71
2024/04/02 13:37:34;;;;;;;;;;;;;;;18.13;45.66;98836.44;10410854;28;937;-70
2024/04/02 13:42:30;;;;;;;;;;;;;;;18.17;45.49;98843.19;10410975;28;841;-71
2024/04/02 13:47:26;;;;;;;;;;;;;;;18.22;45.52;98836.81;10410229;28;853;-70
2024/04/02 13:52:21;;;;;;;;;;;;;;;18.23;45.52;98836.72;10409917;28;1963;-70
2024/04/02 13:57:17;;;;;;;;;;;;;;;18.18;45.50;98844.91;10410356;28;944;-70
2024/04/02 14:02:13;;;;;;;;;;;;;;;18.17;45.46;98831.81;10410310;28;869;-70
2024/04/02 14:07:09;;;;;;;;;;;;;;;18.15;45.44;98831.88;10407932;28;1088;-70
2024/04/02 14:12:05;;;;;;;;;;;;;;;18.13;45.45;98835.56;10409311;28;1897;-69
2024/04/02 14:17:01;;;;;;;;;;;;;;;18.11;45.39;98840.94;10408969;28;940;-71
2024/04/02 14:21:57;;;;;;;;;;;;;;;18.11;45.64;98825.13;10408552;28;1003;-71
2024/04/02 14:26:53;;;;;;;;;;;;;;;18.12;45.52;98824.16;10408245;28;1313;-75
2024/04/02 14:31:49;;;;;;;;;;;;;;;18.18;45.38;98826.47;10408304;28;1894;-70
2024/04/02 14:36:45;;;;;;;;;;;;;;;18.15;45.38;98838.97;10409704;28;849;-74
2024/04/02 14:41:41;;;;;;;;;;;;;;;18.16;45.49;98819.56;10408689;28;877;-71
2024/04/02 14:46:37;;;;;;;;;;;;;;;18.14;45.55;98818.81;10408604;28;879;-66
2024/04/02 14:51:33;;;;;;;;;;;;;;;18.12;45.54;98824.16;10408473;28;1941;-70
2024/04/02 14:56:29;;;;;;;;;;;;;;;18.13;45.66;98822.38;10407170;28;791;-71
2024/04/02 15:01:25;;;;;;;;;;;;;;;18.13;45.51;98828.50;10408198;28;856;-71
2024/04/02 15:06:21;;;;;;;;;;;;;;;18.16;45.47;98836.25;10407546;28;881;-71
2024/04/02 15:11:17;;;;;;;;;;;;;;;18.14;45.60;98838.13;10408038;28;1959;-71
2024/04/02 15:16:13;;;;;;;;;;;;;;;18.14;45.62;98829.34;10407481;28;956;-69
2024/04/02 15:21:09;;;;;;;;;;;;;;;18.13;45.51;98828.50;10407279;28;824;-70
2024/04/02 15:26:04;;;;;;;;;;;;;;;18.14;45.52;98829.34;10407234;28;1143;-70
2024/04/02 15:31:00;;;;;;;;;;;;;;;18.14;45.50;98832.00;10409354;28;1913;-70
2024/04/02 15:35:56;;;;;;;;;;;;;;;18.14;45.89;98842.53;10416046;28;968;-70
2024/04/02 15:40:52;;;;;;;;;;;;;;;18.14;45.69;98832.00;10415213;28;929;-70
2024/04/02 15:45:48;;;;;;;;;;;;;;;18.14;45.75;98838.13;10414340;28;816;-70
2024/04/02 15:50:44;;;;;;;;;;;;;;;18.15;46.04;98829.25;10414789;27;1948;-70
2024/04/02 15:55:40;;;;;;;;;;;;;;;18.16;45.76;98828.34;10414735;28;891;-70
2024/04/02 16:00:35;;;;;;;;;;;;;;;18.16;45.74;98820.41;10415054;28;890;-74
2024/04/02 16:05:31;;;;;;;;;;;;;;;18.19;45.92;98824.66;10415094;28;877;-71
2024/04/02 16:10:27;;;;;;;;;;;;;;;18.18;45.95;98829.09;10414038;28;1961;-70
2024/04/02 16:15:23;;;;;;;;;;;;;;;18.21;46.10;98824.56;10413865;28;1187;-71
2024/04/02 16:20:19;;;;;;;;;;;;;;;18.19;45.98;98827.31;10414238;28;809;-70
2024/04/02 16:25:17;;;;;;;;;;;;;;;18.22;46.02;98826.28;10413402;27;1092;-70
2024/04/02 16:30:13;;;;;;;;;;;;;;;18.22;46.17;98829.75;10413778;28;1917;-70
2024/04/02 16:35:09;;;;;;;;;;;;;;;18.22;46.14;98818.34;10413086;28;969;-70
2024/04/02 16:40:04;;;;;;;;;;;;;;;18.21;46.18;98833.34;10413486;27;851;-70
2024/04/02 16:45:00;;;;;;;;;;;;;;;18.21;46.13;98832.47;10412361;28;850;-70
2024/04/02 16:49:56;;;;;;;;;;;;;;;18.20;46.03;98831.63;10412494;28;1956;-70
2024/04/02 16:54:52;;;;;;;;;;;;;;;18.23;46.03;98830.59;10411694;28;814;-70
2024/04/02 16:59:48;;;;;;;;;;;;;;;18.22;46.09;98839.47;10412191;28;861;-71
2024/04/02 17:04:44;;;;;;;;;;;;;;;18.22;46.03;98847.38;10411933;28;973;-70
2024/04/02 17:09:39;;;;;;;;;;;;;;;18.22;46.01;98850.00;10412295;28;1883;-70
2024/04/02 17:14:36;;;;;;;;;;;;;;;18.20;46.11;98849.25;10412449;28;889;-70
2024/04/02 17:19:31;;;;;;;;;;;;;;;18.20;46.05;98851.88;10411366;28;803;-70
2024/04/02 17:24:27;;;;;;;;;;;;;;;18.20;46.13;98855.34;10411193;28;1281;-70
2024/04/02 17:29:23;;;;;;;;;;;;;;;18.20;45.97;98857.16;10411141;28;1906;-70
2024/04/02 17:34:19;;;;;;;;;;;;;;;18.19;46.13;98858.94;10411387;28;962;-70
2024/04/02 17:39:15;;;;;;;;;;;;;;;18.20;46.21;98868.56;10410545;28;875;-70
2024/04/02 17:44:11;;;;;;;;;;;;;;;18.20;46.06;98870.34;10410382;28;872;-71
2024/04/02 17:49:07;;;;;;;;;;;;;;;18.19;46.16;98877.41;10410122;27;1893;-70
2024/04/02 17:54:03;;;;;;;;;;;;;;;18.18;46.12;98876.56;10409192;28;838;-70
2024/04/02 17:58:59;;;;;;;;;;;;;;;18.20;46.19;98880.91;10409123;28;1182;-71
2024/04/02 18:03:55;;;;;;;;;;;;;;;18.19;46.00;98890.59;10409532;28;864;-70
2024/04/02 18:08:51;;;;;;;;;;;;;;;18.20;46.13;98888.81;10410127;28;1951;-70
2024/04/02 18:13:48;;;;;;;;;;;;;;;18.20;46.11;98886.16;10409786;28;829;-70
2024/04/02 18:18:44;;;;;;;;;;;;;;;18.20;46.05;98878.25;10408902;27;882;-71
2024/04/02 18:23:40;;;;;;;;;;;;;;;18.19;46.05;98893.25;10408689;28;1045;-74
2024/04/02 18:28:36;;;;;;;;;;;;;;;18.20;46.12;98888.81;10409318;28;1989;-71
2024/04/02 18:33:32;;;;;;;;;;;;;;;18.20;46.18;98896.72;10408424;28;901;-71
2024/04/02 18:38:28;;;;;;;;;;;;;;;18.20;45.98;98894.94;10408425;28;933;-71
2024/04/02 18:43:24;;;;;;;;;;;;;;;18.21;46.11;98911.59;10408200;28;814;-71
2024/04/02 18:48:20;;;;;;;;;;;;;;;18.22;46.15;98900.13;10407937;28;1886;-71
2024/04/02 18:53:16;;;;;;;;;;;;;;;18.22;46.00;98916.78;10407901;28;852;-71
2024/04/02 18:58:12;;;;;;;;;;;;;;;18.22;46.15;98905.41;10407830;28;920;-71
2024/04/02 19:03:08;;;;;;;;;;;;;;;18.22;46.14;98918.59;10408238;28;843;-70
2024/04/02 19:08:04;;;;;;;;;;;;;;;18.23;46.23;98918.47;10407348;28;1889;-71
2024/04/02 19:13:00;;;;;;;;;;;;;;;18.24;46.14;98911.44;10406777;28;905;-71
2024/04/02 19:17:56;;;;;;;;;;;;;;;18.23;45.98;98907.09;10407416;28;818;-71
2024/04/02 19:22:52;;;;;;;;;;;;;;;18.23;46.10;98904.44;10407292;28;833;-71
2024/04/02 19:27:48;;;;;;;;;;;;;;;18.24;46.06;98907.00;10407254;28;1536;-71
2024/04/02 19:32:44;;;;;;;;;;;;;;;18.25;46.09;98905.22;10406419;28;1976;-71
2024/04/02 19:37:41;;;;;;;;;;;;;;;18.24;46.08;98904.38;10406946;28;914;-71
2024/04/02 19:42:37;;;;;;;;;;;;;;;18.23;46.11;98904.44;10407451;28;854;-71
2024/04/02 19:47:33;;;;;;;;;;;;;;;18.23;46.13;98901.81;10406739;28;924;-71
2024/04/02 19:52:29;;;;;;;;;;;;;;;18.23;45.97;98899.16;10406789;28;1913;-71
2024/04/02 19:57:25;;;;;;;;;;;;;;;18.22;46.08;98895.69;10407306;28;776;-71
2024/04/02 20:02:21;;;;;;;;;;;;;;;18.22;45.84;98900.97;10407727;28;842;-71
2024/04/02 20:07:17;;;;;;;;;;;;;;;18.20;46.09;98894.94;10407101;28;855;-71
2024/04/02 20:12:13;;;;;;;;;;;;;;;18.20;45.94;98902.84;10406286;28;1901;-71
2024/04/02 20:17:09;;;;;;;;;;;;;;;18.20;45.95;98904.63;10408608;28;829;-69
2024/04/02 20:22:05;;;;;;;;;;;;;;;18.20;46.10;98904.63;10414555;28;882;-71
2024/04/02 20:27:00;;;;;;;;;;;;;;;18.18;45.90;98902.94;10413922;28;1092;-71
2024/04/02 20:31:56;;;;;;;;;;;;;;;18.17;45.93;98909.13;10412806;28;1909;-70
2024/04/02 20:36:52;;;;;;;;;;;;;;;18.18;46.11;98907.34;10414139;28;886;-70
2024/04/02 20:41:48;;;;;;;;;;;;;;;18.16;46.04;98909.25;10414464;28;833;-70
2024/04/02 20:46:44;;;;;;;;;;;;;;;18.16;46.08;98899.53;10414371;28;853;-70
2024/04/02 20:51:40;;;;;;;;;;;;;;;18.16;45.80;98899.53;10412923;28;1950;-70
2024/04/02 20:56:36;;;;;;;;;;;;;;;18.16;46.05;98910.09;10412603;28;897;-70
2024/04/02 21:01:31;;;;;;;;;;;;;;;18.14;45.75;98906.69;10413056;28;822;-70
2024/04/02 21:06:28;;;;;;;;;;;;;;;18.12;46.07;98900.66;10412025;27;1118;-70
2024/04/02 21:11:24;;;;;;;;;;;;;;;18.12;46.01;98898.00;10411924;28;1898;-70
2024/04/02 21:16:20;;;;;;;;;;;;;;;18.11;45.91;98898.13;10411179;28;1059;-70
2024/04/02 21:21:16;;;;;;;;;;;;;;;18.09;45.85;98897.34;10411659;27;965;-70
2024/04/02 21:26:12;;;;;;;;;;;;;;;18.07;45.78;98912.41;10411440;28;1303;-70
2024/04/02 21:31:08;;;;;;;;;;;;;;;18.05;45.98;98907.25;10410872;28;1917;-70
2024/04/02 21:36:04;;;;;;;;;;;;;;;18.02;45.80;98907.38;10411093;28;892;-70
2024/04/02 21:40:59;;;;;;;;;;;;;;;18.00;45.89;98925.09;10411411;28;877;-70
2024/04/02 21:45:55;;;;;;;;;;;;;;;17.99;45.76;98918.13;10411227;28;968;-70
2024/04/02 21:50:51;;;;;;;;;;;;;;;17.98;45.63;98923.50;10410630;28;1893;-70
2024/04/02 21:55:47;;;;;;;;;;;;;;;17.94;45.71;98917.53;10410212;28;1284;-70
2024/04/02 22:00:43;;;;;;;;;;;;;;;17.93;45.92;98921.13;10409434;28;906;-70
2024/04/02 22:05:39;;;;;;;;;;;;;;;17.90;45.82;98924.78;10410118;28;755;-70
2024/04/02 22:10:35;;;;;;;;;;;;;;;17.88;45.95;98916.09;10410252;27;1960;-70
2024/04/02 22:15:31;;;;;;;;;;;;;;;17.87;45.94;98911.78;10410077;28;939;-70
2024/04/02 22:20:27;;;;;;;;;;;;;;;17.86;46.11;98902.13;10408604;28;849;-70
2024/04/02 22:25:23;;;;;;;;;;;;;;;17.83;45.90;98910.22;10408985;28;1210;-70
2024/04/02 22:30:18;;;;;;;;;;;;;;;17.82;46.04;98907.69;10409373;28;1917;-70
2024/04/02 22:35:14;;;;;;;;;;;;;;;17.80;45.98;98907.78;10408958;28;811;-70
2024/04/02 22:40:10;;;;;;;;;;;;;;;17.79;46.23;98914.00;10408332;28;917;-71
2024/04/02 22:45:06;;;;;;;;;;;;;;;17.77;45.97;98910.56;10408496;28;837;-70
2024/04/02 22:50:02;;;;;;;;;;;;;;;17.75;46.16;98905.34;10408226;28;1898;-70
2024/04/02 22:54:58;;;;;;;;;;;;;;;17.74;46.25;98910.75;10408765;28;972;-70
2024/04/02 22:59:54;;;;;;;;;;;;;;;17.72;46.05;98915.25;10408593;28;810;-70
2024/04/02 23:04:50;;;;;;;;;;;;;;;17.70;46.23;98917.09;10408630;28;946;-70
2024/04/02 23:09:45;;;;;;;;;;;;;;;17.68;46.19;98914.56;10407179;28;1960;-70
2024/04/02 23:14:41;;;;;;;;;;;;;;;17.66;46.09;98916.44;10408353;28;885;-70
2024/04/02 23:19:37;;;;;;;;;;;;;;;17.65;46.26;98912.09;10408165;28;889;-70
2024/04/02 23:24:34;;;;;;;;;;;;;;;17.62;46.11;98903.50;10407374;28;1367;-70
2024/04/02 23:29:30;;;;;;;;;;;;;;;17.62;46.11;98903.50;10407352;28;1980;-70
2024/04/02 23:34:26;;;;;;;;;;;;;;;17.59;46.21;98896.63;10407198;28;830;-70
2024/04/02 23:39:22;;;;;;;;;;;;;;;17.58;46.20;98883.53;10407290;28;940;-70
2024/04/02 23:44:18;;;;;;;;;;;;;;;17.55;46.19;98886.34;10408036;28;858;-70
2024/04/02 23:49:13;;;;;;;;;;;;;;;17.52;46.13;98882.09;10407567;28;1960;-70
2024/04/02 23:54:09;;;;;;;;;;;;;;;17.51;46.40;98881.25;10412444;28;873;-70
2024/04/02 23:59:05;;;;;;;;;;;;;;;17.49;46.29;98883.09;10414909;28;877;-70
